sensor_id;sensor_type;location;lat;lon;timestamp;pressure;altitude;pressure_sealevel;temperature;humidity
51849;BME280;38952;51.090;-1.832;2023-03-14T00:01:08;97628.97;;;8.51;100.00
51849;BME280;38952;51.090;-1.832;2023-03-14T00:03:34;97688.56;;;8.62;100.00
51849;BME280;38952;51.090;-1.832;2023-03-14T00:06:03;97693.66;;;8.37;100.00
51849;BME280;38952;51.090;-1.832;2023-03-14T00:08:29;97667.81;;;8.08;100.00
51849;BME280;38952;51.090;-1.832;2023-03-14T00:10:55;97691.47;;;7.99;100.00
51849;BME280;38952;51.090;-1.832;2023-03-14T00:13:27;97706.59;;;7.82;100.00
51849;BME280;38952;51.090;-1.832;2023-03-14T00:15:53;97708.03;;;7.71;100.00
51849;BME280;38952;51.090;-1.832;2023-03-14T00:18:21;97707.16;;;7.62;100.00
51849;BME280;38952;51.090;-1.832;2023-03-14T00:20:50;97723.41;;;7.44;100.00
51849;BME280;38952;51.090;-1.832;2023-03-14T00:23:18;97731.88;;;7.43;100.00
51849;BME280;38952;51.090;-1.832;2023-03-14T00:25:44;97745.97;;;7.45;100.00
51849;BME280;38952;51.090;-1.832;2023-03-14T00:28:09;97751.56;;;7.48;100.00
51849;BME280;38952;51.090;-1.832;2023-03-14T00:30:37;97767.03;;;7.39;100.00
51849;BME280;38952;51.090;-1.832;2023-03-14T00:33:02;97769.19;;;7.28;100.00
51849;BME280;38952;51.090;-1.832;2023-03-14T00:35:28;97777.28;;;7.20;100.00
51849;BME280;38952;51.090;-1.832;2023-03-14T00:37:53;97768.03;;;6.98;100.00
51849;BME280;38952;51.090;-1.832;2023-03-14T00:40:19;97797.91;;;6.98;100.00
51849;BME280;38952;51.090;-1.832;2023-03-14T00:42:44;97800.41;;;6.94;100.00
51849;BME280;38952;51.090;-1.832;2023-03-14T00:45:12;97807.78;;;6.94;100.00
51849;BME280;38952;51.090;-1.832;2023-03-14T00:47:37;97820.63;;;7.02;100.00
51849;BME280;38952;51.090;-1.832;2023-03-14T00:50:03;97840.16;;;7.04;100.00
51849;BME280;38952;51.090;-1.832;2023-03-14T00:52:28;97834.34;;;6.97;100.00
51849;BME280;38952;51.090;-1.832;2023-03-14T00:54:54;97840.47;;;6.89;100.00
51849;BME280;38952;51.090;-1.832;2023-03-14T00:57:19;97851.34;;;6.89;100.00
51849;BME280;38952;51.090;-1.832;2023-03-14T00:59:44;97863.75;;;6.81;100.00
51849;BME280;38952;51.090;-1.832;2023-03-14T01:02:10;97863.25;;;6.65;100.00
51849;BME280;38952;51.090;-1.832;2023-03-14T01:04:35;97877.22;;;6.44;100.00
51849;BME280;38952;51.090;-1.832;2023-03-14T01:07:02;97899.03;;;6.25;100.00
51849;BME280;38952;51.090;-1.832;2023-03-14T01:09:28;97891.34;;;6.00;100.00
51849;BME280;38952;51.090;-1.832;2023-03-14T01:11:53;97909.25;;;5.82;100.00
51849;BME280;38952;51.090;-1.832;2023-03-14T01:14:19;97916.00;;;5.65;100.00
51849;BME280;38952;51.090;-1.832;2023-03-14T01:16:44;97905.91;;;5.52;100.00
51849;BME280;38952;51.090;-1.832;2023-03-14T01:19:12;97924.97;;;5.47;100.00
51849;BME280;38952;51.090;-1.832;2023-03-14T01:21:38;97928.59;;;5.37;100.00
51849;BME280;38952;51.090;-1.832;2023-03-14T01:24:05;97951.19;;;5.32;100.00
51849;BME280;38952;51.090;-1.832;2023-03-14T01:26:32;97954.91;;;5.17;99.59
51849;BME280;38952;51.090;-1.832;2023-03-14T01:28:58;97963.91;;;5.13;99.86
51849;BME280;38952;51.090;-1.832;2023-03-14T01:31:25;97983.00;;;5.02;99.76
51849;BME280;38952;51.090;-1.832;2023-03-14T01:33:51;97995.31;;;4.89;98.85
51849;BME280;38952;51.090;-1.832;2023-03-14T01:36:16;97992.31;;;4.67;98.68
51849;BME280;38952;51.090;-1.832;2023-03-14T01:38:42;98009.38;;;4.67;97.80
51849;BME280;38952;51.090;-1.832;2023-03-14T01:41:12;98011.72;;;4.50;97.45
51849;BME280;38952;51.090;-1.832;2023-03-14T01:43:40;98061.44;;;4.54;97.37
51849;BME280;38952;51.090;-1.832;2023-03-14T01:48:42;98081.09;;;4.35;95.55
51849;BME280;38952;51.090;-1.832;2023-03-14T01:51:13;98089.88;;;4.22;96.27
51849;BME280;38952;51.090;-1.832;2023-03-14T01:53:42;98109.34;;;4.19;94.64
51849;BME280;38952;51.090;-1.832;2023-03-14T01:56:14;98091.38;;;3.94;93.72
51849;BME280;38952;51.090;-1.832;2023-03-14T01:58:43;98107.31;;;3.95;93.99
51849;BME280;38952;51.090;-1.832;2023-03-14T02:01:11;98136.50;;;3.98;94.08
51849;BME280;38952;51.090;-1.832;2023-03-14T02:03:47;98108.22;;;3.80;92.32
51849;BME280;38952;51.090;-1.832;2023-03-14T02:06:17;98126.31;;;3.85;90.95
51849;BME280;38952;51.090;-1.832;2023-03-14T02:08:44;98139.31;;;3.83;90.39
51849;BME280;38952;51.090;-1.832;2023-03-14T02:11:14;98154.69;;;3.82;89.83
51849;BME280;38952;51.090;-1.832;2023-03-14T02:13:39;98170.69;;;3.79;89.63
51849;BME280;38952;51.090;-1.832;2023-03-14T02:16:05;98167.97;;;3.74;89.11
51849;BME280;38952;51.090;-1.832;2023-03-14T02:18:31;98172.91;;;3.66;89.49
51849;BME280;38952;51.090;-1.832;2023-03-14T02:24:07;98201.53;;;3.73;89.33
51849;BME280;38952;51.090;-1.832;2023-03-14T02:26:41;98200.44;;;3.63;89.88
51849;BME280;38952;51.090;-1.832;2023-03-14T02:29:09;98191.06;;;3.51;89.10
51849;BME280;38952;51.090;-1.832;2023-03-14T02:31:35;98212.66;;;3.61;88.53
51849;BME280;38952;51.090;-1.832;2023-03-14T02:34:01;98211.84;;;3.50;89.76
51849;BME280;38952;51.090;-1.832;2023-03-14T02:36:27;98233.47;;;3.50;90.19
51849;BME280;38952;51.090;-1.832;2023-03-14T02:39:02;98239.13;;;3.48;89.96
51849;BME280;38952;51.090;-1.832;2023-03-14T02:41:30;98234.03;;;3.37;89.08
51849;BME280;38952;51.090;-1.832;2023-03-14T02:43:56;98241.06;;;3.38;88.53
51849;BME280;38952;51.090;-1.832;2023-03-14T02:46:22;98250.78;;;3.34;88.27
51849;BME280;38952;51.090;-1.832;2023-03-14T02:48:51;98259.44;;;3.30;87.99
51849;BME280;38952;51.090;-1.832;2023-03-14T02:51:19;98268.09;;;3.38;86.90
51849;BME280;38952;51.090;-1.832;2023-03-14T02:53:45;98273.75;;;3.31;88.09
51849;BME280;38952;51.090;-1.832;2023-03-14T02:56:11;98268.63;;;3.24;88.34
51849;BME280;38952;51.090;-1.832;2023-03-14T02:58:37;98271.31;;;3.19;88.89
51849;BME280;38952;51.090;-1.832;2023-03-14T03:01:03;98274.53;;;3.21;88.90
51849;BME280;38952;51.090;-1.832;2023-03-14T03:03:28;98272.66;;;3.17;90.01
51849;BME280;38952;51.090;-1.832;2023-03-14T03:05:55;98296.16;;;3.21;89.62
51849;BME280;38952;51.090;-1.832;2023-03-14T03:08:23;98282.13;;;3.14;90.33
51849;BME280;38952;51.090;-1.832;2023-03-14T03:10:51;98300.50;;;3.17;90.01
51849;BME280;38952;51.090;-1.832;2023-03-14T03:13:17;98315.06;;;3.16;90.03
51849;BME280;38952;51.090;-1.832;2023-03-14T03:15:43;98308.59;;;3.12;89.74
51849;BME280;38952;51.090;-1.832;2023-03-14T03:18:08;98326.41;;;3.13;89.59
51849;BME280;38952;51.090;-1.832;2023-03-14T03:20:34;98327.50;;;3.12;89.09
51849;BME280;38952;51.090;-1.832;2023-03-14T03:22:59;98328.56;;;3.11;88.46
51849;BME280;38952;51.090;-1.832;2023-03-14T03:25:25;98335.31;;;3.13;87.95
51849;BME280;38952;51.090;-1.832;2023-03-14T03:27:51;98338.81;;;3.04;88.25
51849;BME280;38952;51.090;-1.832;2023-03-14T03:30:17;98342.06;;;3.06;88.50
51849;BME280;38952;51.090;-1.832;2023-03-14T03:32:42;98352.34;;;3.09;88.35
51849;BME280;38952;51.090;-1.832;2023-03-14T03:35:09;98360.41;;;3.04;88.33
51849;BME280;38952;51.090;-1.832;2023-03-14T03:37:35;98368.81;;;3.07;87.64
51849;BME280;38952;51.090;-1.832;2023-03-14T03:40:00;98367.19;;;3.11;86.82
51849;BME280;38952;51.090;-1.832;2023-03-14T03:42:29;98374.50;;;3.26;86.68
51849;BME280;38952;51.090;-1.832;2023-03-14T03:44:57;98362.09;;;3.30;86.46
51849;BME280;38952;51.090;-1.832;2023-03-14T03:47:22;98369.66;;;3.44;85.45
51849;BME280;38952;51.090;-1.832;2023-03-14T03:49:48;98372.66;;;3.58;85.42
51849;BME280;38952;51.090;-1.832;2023-03-14T03:52:13;98364.00;;;3.61;84.42
51849;BME280;38952;51.090;-1.832;2023-03-14T03:54:38;98362.63;;;3.63;85.11
51849;BME280;38952;51.090;-1.832;2023-03-14T03:57:04;98391.84;;;3.82;84.54
51849;BME280;38952;51.090;-1.832;2023-03-14T03:59:31;98418.31;;;3.85;85.15
51849;BME280;38952;51.090;-1.832;2023-03-14T04:01:57;98407.25;;;3.71;84.74
51849;BME280;38952;51.090;-1.832;2023-03-14T04:04:23;98426.44;;;3.80;85.55
51849;BME280;38952;51.090;-1.832;2023-03-14T04:06:50;98429.13;;;3.85;85.81
51849;BME280;38952;51.090;-1.832;2023-03-14T04:09:21;98423.75;;;3.80;86.18
51849;BME280;38952;51.090;-1.832;2023-03-14T04:11:49;98422.09;;;3.74;86.14
51849;BME280;38952;51.090;-1.832;2023-03-14T04:14:14;98431.31;;;3.83;86.59
51849;BME280;38952;51.090;-1.832;2023-03-14T04:16:39;98436.19;;;3.86;86.56
51849;BME280;38952;51.090;-1.832;2023-03-14T04:19:05;98440.50;;;3.82;86.55
51849;BME280;38952;51.090;-1.832;2023-03-14T04:21:30;98422.94;;;3.74;87.51
51849;BME280;38952;51.090;-1.832;2023-03-14T04:23:56;98459.72;;;3.86;88.22
51849;BME280;38952;51.090;-1.832;2023-03-14T04:26:29;98472.41;;;3.85;88.68
51849;BME280;38952;51.090;-1.832;2023-03-14T04:28:54;98471.84;;;3.88;88.45
51849;BME280;38952;51.090;-1.832;2023-03-14T04:31:21;98475.94;;;3.91;89.19
51849;BME280;38952;51.090;-1.832;2023-03-14T04:33:46;98464.31;;;3.80;89.22
51849;BME280;38952;51.090;-1.832;2023-03-14T04:36:12;98484.84;;;3.91;89.88
51849;BME280;38952;51.090;-1.832;2023-03-14T04:38:37;98494.59;;;3.92;89.65
51849;BME280;38952;51.090;-1.832;2023-03-14T04:41:03;98492.16;;;3.91;89.59
51849;BME280;38952;51.090;-1.832;2023-03-14T04:43:29;98496.75;;;3.95;89.80
51849;BME280;38952;51.090;-1.832;2023-03-14T04:45:56;98499.75;;;3.99;89.97
51849;BME280;38952;51.090;-1.832;2023-03-14T04:48:22;98506.50;;;4.07;86.84
51849;BME280;38952;51.090;-1.832;2023-03-14T04:50:48;98505.94;;;4.10;86.44
51849;BME280;38952;51.090;-1.832;2023-03-14T04:53:14;98523.28;;;4.14;85.00
51849;BME280;38952;51.090;-1.832;2023-03-14T04:55:40;98518.38;;;4.16;84.87
51849;BME280;38952;51.090;-1.832;2023-03-14T04:58:05;98524.91;;;4.15;84.57
51849;BME280;38952;51.090;-1.832;2023-03-14T05:00:31;98530.03;;;4.22;84.99
51849;BME280;38952;51.090;-1.832;2023-03-14T05:02:56;98535.72;;;4.15;84.26
51849;BME280;38952;51.090;-1.832;2023-03-14T05:05:22;98533.53;;;4.07;84.06
51849;BME280;38952;51.090;-1.832;2023-03-14T05:07:48;98543.81;;;3.94;84.95
51849;BME280;38952;51.090;-1.832;2023-03-14T05:10:13;98548.66;;;3.77;84.64
51849;BME280;38952;51.090;-1.832;2023-03-14T05:12:39;98548.59;;;3.61;85.48
51849;BME280;38952;51.090;-1.832;2023-03-14T05:15:05;98555.06;;;3.50;86.50
51849;BME280;38952;51.090;-1.832;2023-03-14T05:17:32;98554.47;;;3.38;86.98
51849;BME280;38952;51.090;-1.832;2023-03-14T05:19:57;98568.25;;;3.36;86.26
51849;BME280;38952;51.090;-1.832;2023-03-14T05:22:23;98557.72;;;3.35;85.54
51849;BME280;38952;51.090;-1.832;2023-03-14T05:24:48;98552.28;;;3.29;85.95
51849;BME280;38952;51.090;-1.832;2023-03-14T05:27:14;98534.97;;;3.25;86.35
51849;BME280;38952;51.090;-1.832;2023-03-14T05:29:39;98541.16;;;3.16;86.12
51849;BME280;38952;51.090;-1.832;2023-03-14T05:32:05;98557.06;;;3.12;87.07
51849;BME280;38952;51.090;-1.832;2023-03-14T05:34:30;98546.69;;;2.93;86.97
51849;BME280;38952;51.090;-1.832;2023-03-14T05:36:56;98564.06;;;3.03;87.54
51849;BME280;38952;51.090;-1.832;2023-03-14T05:39:21;98566.72;;;2.97;87.03
51849;BME280;38952;51.090;-1.832;2023-03-14T05:41:47;98575.06;;;2.96;87.86
51849;BME280;38952;51.090;-1.832;2023-03-14T05:44:12;98580.72;;;2.89;88.18
51849;BME280;38952;51.090;-1.832;2023-03-14T05:46:38;98592.28;;;2.85;87.95
51849;BME280;38952;51.090;-1.832;2023-03-14T05:49:03;98598.47;;;2.80;88.66
51849;BME280;38952;51.090;-1.832;2023-03-14T05:51:29;98602.25;;;2.79;88.16
51849;BME280;38952;51.090;-1.832;2023-03-14T05:53:54;98614.06;;;2.73;88.37
51849;BME280;38952;51.090;-1.832;2023-03-14T05:56:19;98618.13;;;2.75;88.83
51849;BME280;38952;51.090;-1.832;2023-03-14T05:58:45;98606.75;;;2.68;88.13
51849;BME280;38952;51.090;-1.832;2023-03-14T06:01:10;98627.56;;;2.73;88.71
51849;BME280;38952;51.090;-1.832;2023-03-14T06:03:36;98624.31;;;2.71;88.27
51849;BME280;38952;51.090;-1.832;2023-03-14T06:06:01;98639.44;;;2.72;88.24
51849;BME280;38952;51.090;-1.832;2023-03-14T06:08:27;98645.09;;;2.70;88.23
51849;BME280;38952;51.090;-1.832;2023-03-14T06:10:53;98644.53;;;2.68;88.12
51849;BME280;38952;51.090;-1.832;2023-03-14T06:13:19;98679.63;;;2.68;87.83
51849;BME280;38952;51.090;-1.832;2023-03-14T06:15:45;98665.84;;;2.65;87.89
51849;BME280;38952;51.090;-1.832;2023-03-14T06:18:11;98679.88;;;2.67;88.89
51849;BME280;38952;51.090;-1.832;2023-03-14T06:20:39;98673.88;;;2.59;89.09
51849;BME280;38952;51.090;-1.832;2023-03-14T06:23:05;98686.31;;;2.60;89.06
51849;BME280;38952;51.090;-1.832;2023-03-14T06:25:32;98705.50;;;2.64;90.09
51849;BME280;38952;51.090;-1.832;2023-03-14T06:28:05;98696.38;;;2.70;89.11
51849;BME280;38952;51.090;-1.832;2023-03-14T06:30:30;98704.84;;;2.79;88.94
51849;BME280;38952;51.090;-1.832;2023-03-14T06:32:56;98697.38;;;2.91;88.35
51849;BME280;38952;51.090;-1.832;2023-03-14T06:35:22;98718.25;;;3.01;88.78
51849;BME280;38952;51.090;-1.832;2023-03-14T06:37:48;98712.00;;;3.01;88.59
51849;BME280;38952;51.090;-1.832;2023-03-14T06:40:13;98722.81;;;3.01;89.23
51849;BME280;38952;51.090;-1.832;2023-03-14T06:42:43;98729.50;;;2.93;89.48
51849;BME280;38952;51.090;-1.832;2023-03-14T06:45:09;98739.44;;;2.87;89.93
51849;BME280;38952;51.090;-1.832;2023-03-14T06:47:34;98744.50;;;2.78;90.39
51849;BME280;38952;51.090;-1.832;2023-03-14T06:50:00;98745.94;;;2.86;90.90
51849;BME280;38952;51.090;-1.832;2023-03-14T06:52:25;98754.13;;;2.96;90.49
51849;BME280;38952;51.090;-1.832;2023-03-14T06:54:51;98757.97;;;3.06;90.59
51849;BME280;38952;51.090;-1.832;2023-03-14T06:57:16;98758.56;;;3.13;90.14
51849;BME280;38952;51.090;-1.832;2023-03-14T06:59:42;98770.50;;;3.17;89.80
51849;BME280;38952;51.090;-1.832;2023-03-14T07:02:10;98775.38;;;3.20;90.01
51849;BME280;38952;51.090;-1.832;2023-03-14T07:04:37;98772.63;;;3.15;89.49
51849;BME280;38952;51.090;-1.832;2023-03-14T07:07:05;98793.63;;;3.08;89.78
51849;BME280;38952;51.090;-1.832;2023-03-14T07:09:31;98796.28;;;3.03;89.68
51849;BME280;38952;51.090;-1.832;2023-03-14T07:11:59;98801.09;;;2.95;90.26
51849;BME280;38952;51.090;-1.832;2023-03-14T07:14:27;98799.97;;;2.91;89.94
51849;BME280;38952;51.090;-1.832;2023-03-14T07:16:53;98807.81;;;2.93;90.31
51849;BME280;38952;51.090;-1.832;2023-03-14T07:19:18;98823.03;;;3.04;89.86
51849;BME280;38952;51.090;-1.832;2023-03-14T07:21:44;98824.44;;;3.07;89.23
51849;BME280;38952;51.090;-1.832;2023-03-14T07:24:09;98840.16;;;3.15;88.12
51849;BME280;38952;51.090;-1.832;2023-03-14T07:26:38;98832.88;;;3.16;87.69
51849;BME280;38952;51.090;-1.832;2023-03-14T07:29:04;98835.25;;;3.12;87.89
51849;BME280;38952;51.090;-1.832;2023-03-14T07:31:29;98862.88;;;3.19;87.61
51849;BME280;38952;51.090;-1.832;2023-03-14T07:33:57;98849.38;;;3.19;88.08
51849;BME280;38952;51.090;-1.832;2023-03-14T07:36:25;98860.78;;;3.26;88.39
51849;BME280;38952;51.090;-1.832;2023-03-14T07:38:53;98863.56;;;3.31;89.15
51849;BME280;38952;51.090;-1.832;2023-03-14T07:41:21;98893.72;;;3.51;89.45
51849;BME280;38952;51.090;-1.832;2023-03-14T07:43:48;98882.72;;;3.62;88.40
51849;BME280;38952;51.090;-1.832;2023-03-14T07:46:16;98886.31;;;3.73;88.13
51849;BME280;38952;51.090;-1.832;2023-03-14T07:48:42;98890.88;;;3.67;88.22
51849;BME280;38952;51.090;-1.832;2023-03-14T07:51:08;98895.22;;;3.69;88.18
51849;BME280;38952;51.090;-1.832;2023-03-14T07:53:34;98900.19;;;3.82;88.75
51849;BME280;38952;51.090;-1.832;2023-03-14T07:56:11;98926.13;;;4.15;89.29
51849;BME280;38952;51.090;-1.832;2023-03-14T07:58:37;98920.22;;;4.77;86.73
51849;BME280;38952;51.090;-1.832;2023-03-14T08:01:05;98929.38;;;5.49;83.18
51849;BME280;38952;51.090;-1.832;2023-03-14T08:03:31;98946.53;;;6.06;79.59
51849;BME280;38952;51.090;-1.832;2023-03-14T08:09:20;98951.34;;;5.58;79.99
51849;BME280;38952;51.090;-1.832;2023-03-14T08:11:47;98976.03;;;5.67;79.35
51849;BME280;38952;51.090;-1.832;2023-03-14T08:14:13;98980.66;;;5.76;77.43
51849;BME280;38952;51.090;-1.832;2023-03-14T08:16:38;98985.03;;;5.93;77.09
51849;BME280;38952;51.090;-1.832;2023-03-14T08:19:04;98989.34;;;5.94;76.68
51849;BME280;38952;51.090;-1.832;2023-03-14T08:21:29;99000.19;;;5.94;76.69
51849;BME280;38952;51.090;-1.832;2023-03-14T08:23:55;99009.94;;;5.80;75.12
51849;BME280;38952;51.090;-1.832;2023-03-14T08:26:21;99006.94;;;5.66;76.55
51849;BME280;38952;51.090;-1.832;2023-03-14T08:28:46;99019.16;;;5.63;76.24
51849;BME280;38952;51.090;-1.832;2023-03-14T08:31:11;99038.13;;;5.58;77.27
51849;BME280;38952;51.090;-1.832;2023-03-14T08:33:37;99044.91;;;5.55;77.23
51849;BME280;38952;51.090;-1.832;2023-03-14T08:36:02;99059.03;;;5.68;77.25
51849;BME280;38952;51.090;-1.832;2023-03-14T08:38:28;99057.97;;;5.74;77.36
51849;BME280;38952;51.090;-1.832;2023-03-14T08:41:00;99083.25;;;5.90;77.90
51849;BME280;38952;51.090;-1.832;2023-03-14T09:01:51;99149.59;;;6.35;72.31
51849;BME280;38952;51.090;-1.832;2023-03-14T09:04:16;99146.88;;;6.35;72.92
51849;BME280;38952;51.090;-1.832;2023-03-14T09:06:44;99164.25;;;6.44;72.63
51849;BME280;38952;51.090;-1.832;2023-03-14T09:09:12;99164.81;;;6.41;71.66
51849;BME280;38952;51.090;-1.832;2023-03-14T09:11:38;99175.66;;;6.41;71.77
51849;BME280;38952;51.090;-1.832;2023-03-14T09:14:04;99175.66;;;6.41;71.17
51849;BME280;38952;51.090;-1.832;2023-03-14T09:16:29;99186.53;;;6.52;71.75
51849;BME280;38952;51.090;-1.832;2023-03-14T09:18:57;99182.69;;;6.42;72.02
51849;BME280;38952;51.090;-1.832;2023-03-14T09:21:33;99203.91;;;6.51;71.62
51849;BME280;38952;51.090;-1.832;2023-03-14T09:24:04;99199.59;;;6.70;71.17
51849;BME280;38952;51.090;-1.832;2023-03-14T09:26:29;99197.44;;;6.82;71.05
51849;BME280;38952;51.090;-1.832;2023-03-14T09:28:57;99199.06;;;6.84;69.98
51849;BME280;38952;51.090;-1.832;2023-03-14T09:31:22;99231.13;;;6.97;70.61
51849;BME280;38952;51.090;-1.832;2023-03-14T09:33:48;99231.13;;;7.12;70.78
51849;BME280;38952;51.090;-1.832;2023-03-14T09:36:13;99259.38;;;7.53;70.25
51849;BME280;38952;51.090;-1.832;2023-03-14T09:38:41;99245.75;;;7.68;69.42
51849;BME280;38952;51.090;-1.832;2023-03-14T09:41:39;99269.63;;;7.97;68.63
51849;BME280;38952;51.090;-1.832;2023-03-14T09:44:15;99276.59;;;8.29;68.27
51849;BME280;38952;51.090;-1.832;2023-03-14T09:46:45;99284.75;;;8.89;66.76
51849;BME280;38952;51.090;-1.832;2023-03-14T09:49:21;99300.81;;;12.03;66.39
51849;BME280;38952;51.090;-1.832;2023-03-14T09:51:51;99303.44;;;15.33;53.42
51849;BME280;38952;51.090;-1.832;2023-03-14T09:54:26;99339.72;;;15.00;47.70
51849;BME280;38952;51.090;-1.832;2023-03-14T09:56:55;99330.41;;;12.85;51.82
51849;BME280;38952;51.090;-1.832;2023-03-14T09:59:20;99340.19;;;11.04;56.80
51849;BME280;38952;51.090;-1.832;2023-03-14T10:01:46;99326.56;;;9.83;61.01
51849;BME280;38952;51.090;-1.832;2023-03-14T10:04:19;99353.81;;;9.58;64.90
51849;BME280;38952;51.090;-1.832;2023-03-14T10:06:46;99347.09;;;12.61;63.00
51849;BME280;38952;51.090;-1.832;2023-03-14T10:09:21;99360.28;;;16.46;53.94
51849;BME280;38952;51.090;-1.832;2023-03-14T10:11:56;99384.63;;;21.14;43.38
51849;BME280;38952;51.090;-1.832;2023-03-14T10:14:34;99388.91;;;23.51;38.21
51849;BME280;38952;51.090;-1.832;2023-03-14T10:17:13;99404.50;;;22.53;36.81
51849;BME280;38952;51.090;-1.832;2023-03-14T10:19:55;99403.47;;;19.27;38.35
51849;BME280;38952;51.090;-1.832;2023-03-14T10:22:24;99421.94;;;16.50;43.84
51849;BME280;38952;51.090;-1.832;2023-03-14T10:25:01;99431.41;;;18.85;42.30
51849;BME280;38952;51.090;-1.832;2023-03-14T10:27:32;99426.84;;;22.33;37.03
51849;BME280;38952;51.090;-1.832;2023-03-14T10:30:01;99441.00;;;27.49;31.04
51849;BME280;38952;51.090;-1.832;2023-03-14T10:32:53;99447.09;;;26.83;28.61
51849;BME280;38952;51.090;-1.832;2023-03-14T10:35:22;99441.56;;;23.03;30.95
51849;BME280;38952;51.090;-1.832;2023-03-14T10:38:00;99447.28;;;19.62;35.57
51849;BME280;38952;51.090;-1.832;2023-03-14T10:40:36;99448.44;;;18.38;37.38
51849;BME280;38952;51.090;-1.832;2023-03-14T10:43:11;99463.47;;;22.55;33.29
51849;BME280;38952;51.090;-1.832;2023-03-14T10:45:40;99466.81;;;25.84;29.88
51849;BME280;38952;51.090;-1.832;2023-03-14T10:50:54;99484.03;;;32.99;22.16
51849;BME280;38952;51.090;-1.832;2023-03-14T10:53:20;99492.97;;;30.11;21.81
51849;BME280;38952;51.090;-1.832;2023-03-14T10:55:45;99484.44;;;25.88;25.12
51849;BME280;38952;51.090;-1.832;2023-03-14T10:58:46;99498.81;;;25.76;25.68
51849;BME280;38952;51.090;-1.832;2023-03-14T11:07:39;99523.34;;;19.61;32.26
51849;BME280;38952;51.090;-1.832;2023-03-14T11:10:34;99520.22;;;16.81;35.48
51849;BME280;38952;51.090;-1.832;2023-03-14T11:13:23;99542.84;;;14.80;39.25
51849;BME280;38952;51.090;-1.832;2023-03-14T11:16:19;99555.03;;;13.47;42.53
51849;BME280;38952;51.090;-1.832;2023-03-14T11:21:59;99564.25;;;12.49;47.21
51849;BME280;38952;51.090;-1.832;2023-03-14T11:27:07;99571.75;;;14.46;45.57
51849;BME280;38952;51.090;-1.832;2023-03-14T11:29:55;99584.69;;;14.91;44.02
51849;BME280;38952;51.090;-1.832;2023-03-14T11:34:56;99584.91;;;23.72;35.72
51849;BME280;38952;51.090;-1.832;2023-03-14T11:40:22;99601.34;;;34.55;20.44
51849;BME280;38952;51.090;-1.832;2023-03-14T11:43:04;99604.19;;;32.41;22.11
51849;BME280;38952;51.090;-1.832;2023-03-14T11:45:36;99619.72;;;33.75;17.31
51849;BME280;38952;51.090;-1.832;2023-03-14T11:50:36;99620.78;;;34.70;16.75
51849;BME280;38952;51.090;-1.832;2023-03-14T11:53:23;99611.34;;;38.05;14.79
51849;BME280;38952;51.090;-1.832;2023-03-14T11:55:53;99608.38;;;34.64;15.13
51849;BME280;38952;51.090;-1.832;2023-03-14T11:58:26;99606.09;;;30.09;19.01
51849;BME280;38952;51.090;-1.832;2023-03-14T12:00:54;99596.97;;;27.00;22.24
51849;BME280;38952;51.090;-1.832;2023-03-14T12:03:56;99616.94;;;24.65;23.76
51849;BME280;38952;51.090;-1.832;2023-03-14T12:07:08;99615.34;;;22.68;25.56
51849;BME280;38952;51.090;-1.832;2023-03-14T12:09:38;99602.25;;;21.14;27.89
51849;BME280;38952;51.090;-1.832;2023-03-14T13:31:21;99632.56;;;33.97;11.46
51849;BME280;38952;51.090;-1.832;2023-03-14T13:37:58;99662.66;;;31.57;13.89
51849;BME280;38952;51.090;-1.832;2023-03-14T13:40:28;99626.69;;;28.06;15.74
51849;BME280;38952;51.090;-1.832;2023-03-14T13:45:56;99663.75;;;32.74;15.61
51849;BME280;38952;51.090;-1.832;2023-03-14T13:48:26;99668.25;;;35.98;12.88
51849;BME280;38952;51.090;-1.832;2023-03-14T13:53:26;99697.91;;;39.71;11.60
51849;BME280;38952;51.090;-1.832;2023-03-14T13:55:55;99697.00;;;40.52;8.14
51849;BME280;38952;51.090;-1.832;2023-03-14T13:58:31;99699.69;;;35.81;9.63
51849;BME280;38952;51.090;-1.832;2023-03-14T14:01:03;99689.72;;;30.96;12.13
51849;BME280;38952;51.090;-1.832;2023-03-14T14:03:31;99693.22;;;27.26;14.90
51849;BME280;38952;51.090;-1.832;2023-03-14T14:05:57;99683.16;;;28.54;14.73
51849;BME280;38952;51.090;-1.832;2023-03-14T14:08:24;99696.66;;;29.66;13.87
51849;BME280;38952;51.090;-1.832;2023-03-14T14:10:59;99706.06;;;31.39;13.41
51849;BME280;38952;51.090;-1.832;2023-03-14T14:13:35;99707.88;;;34.73;11.81
51849;BME280;38952;51.090;-1.832;2023-03-14T14:16:01;99711.97;;;36.61;10.61
51849;BME280;38952;51.090;-1.832;2023-03-14T14:18:29;99725.00;;;37.97;10.26
51849;BME280;38952;51.090;-1.832;2023-03-14T14:21:01;99726.44;;;39.47;9.86
51849;BME280;38952;51.090;-1.832;2023-03-14T14:23:28;99715.88;;;39.95;8.96
51849;BME280;38952;51.090;-1.832;2023-03-14T14:25:57;99716.44;;;38.99;8.21
51849;BME280;38952;51.090;-1.832;2023-03-14T14:28:35;99710.69;;;37.79;8.99
51849;BME280;38952;51.090;-1.832;2023-03-14T14:33:42;99716.44;;;34.56;9.68
51849;BME280;38952;51.090;-1.832;2023-03-14T14:36:38;99730.63;;;32.64;11.75
51849;BME280;38952;51.090;-1.832;2023-03-14T14:39:12;99726.34;;;32.56;11.63
51849;BME280;38952;51.090;-1.832;2023-03-14T14:41:41;99704.22;;;32.51;11.70
51849;BME280;38952;51.090;-1.832;2023-03-14T14:44:28;99716.34;;;34.31;11.41
51849;BME280;38952;51.090;-1.832;2023-03-14T14:47:04;99728.41;;;34.93;10.75
51849;BME280;38952;51.090;-1.832;2023-03-14T14:49:31;99707.19;;;32.64;10.58
51849;BME280;38952;51.090;-1.832;2023-03-14T14:52:03;99739.00;;;30.88;12.05
51849;BME280;38952;51.090;-1.832;2023-03-14T14:54:52;99721.41;;;28.23;13.84
51849;BME280;38952;51.090;-1.832;2023-03-14T14:57:38;99724.94;;;28.52;14.42
51849;BME280;38952;51.090;-1.832;2023-03-14T15:00:08;99724.53;;;27.42;14.61
51849;BME280;38952;51.090;-1.832;2023-03-14T15:05:24;99717.03;;;26.65;16.41
51849;BME280;38952;51.090;-1.832;2023-03-14T15:07:52;99730.94;;;24.26;18.05
51849;BME280;38952;51.090;-1.832;2023-03-14T15:10:23;99719.75;;;26.51;17.68
51849;BME280;38952;51.090;-1.832;2023-03-14T15:12:51;99729.31;;;28.75;15.82
51849;BME280;38952;51.090;-1.832;2023-03-14T15:15:17;99728.59;;;29.49;14.54
51849;BME280;38952;51.090;-1.832;2023-03-14T15:17:43;99723.13;;;29.80;14.42
51849;BME280;38952;51.090;-1.832;2023-03-14T15:20:16;99746.69;;;28.37;15.68
51849;BME280;38952;51.090;-1.832;2023-03-14T15:22:56;99736.91;;;27.23;16.34
51849;BME280;38952;51.090;-1.832;2023-03-14T15:25:24;99719.22;;;24.16;17.45
51849;BME280;38952;51.090;-1.832;2023-03-14T15:27:49;99726.81;;;22.17;20.27
51849;BME280;38952;51.090;-1.832;2023-03-14T15:30:20;99739.13;;;21.52;21.66